createdAt,value
2022-08-07T00:00:03.454Z,84.81
2022-08-07T00:00:35.519Z,82.78
2022-08-07T00:01:12.471Z,83.80
2022-08-07T00:02:36.831Z,84.00
2022-08-07T00:02:41.223Z,83.49
2022-08-07T00:02:56.453Z,83.09
2022-08-07T00:03:36.765Z,83.94
2022-08-07T00:04:06.674Z,83.69
2022-08-07T00:04:42.003Z,84.34
2022-08-07T00:05:17.071Z,82.62
2022-08-07T00:05:52.193Z,83.69
2022-08-07T00:06:29.476Z,83.83
2022-08-07T00:07:05.290Z,84.61
2022-08-07T00:07:40.937Z,85.21
2022-08-07T00:08:14.540Z,84.91
2022-08-07T00:08:49.065Z,84.41
2022-08-07T00:09:34.296Z,85.11
2022-08-07T00:10:25.895Z,83.94
2022-08-07T00:10:34.920Z,83.18
2022-08-07T00:11:10.147Z,84.50
2022-08-07T00:11:53.809Z,84.91
2022-08-07T00:12:20.803Z,84.41
2022-08-07T00:13:00.572Z,84.91
2022-08-07T00:13:31.463Z,85.01
2022-08-07T00:14:06.470Z,85.72
2022-08-07T00:14:44.119Z,84.91
2022-08-07T00:15:17.094Z,86.13
2022-08-07T00:15:52.527Z,86.02
2022-08-07T00:16:28.218Z,86.02
2022-08-07T00:17:03.364Z,85.01
2022-08-07T00:17:38.729Z,84.85
2022-08-07T00:18:19.413Z,85.01
2022-08-07T00:18:49.139Z,84.41
2022-08-07T00:19:25.924Z,85.36
2022-08-07T00:20:02.935Z,86.02
2022-08-07T00:20:35.446Z,85.46
2022-08-07T00:21:57.026Z,85.56
2022-08-07T00:21:57.261Z,84.91
2022-08-07T00:22:34.501Z,84.91
2022-08-07T00:22:56.094Z,84.75
2022-08-07T00:23:31.602Z,85.76
2022-08-07T00:24:06.901Z,86.47
2022-08-07T00:24:42.167Z,86.57
2022-08-07T00:25:17.441Z,84.95
2022-08-07T00:26:00.112Z,86.98
2022-08-07T00:26:49.455Z,86.68
2022-08-07T00:27:07.542Z,85.86
2022-08-07T00:27:52.457Z,85.56
2022-08-07T00:28:13.600Z,85.15
2022-08-07T00:28:56.626Z,85.86
2022-08-07T00:29:24.235Z,86.27
2022-08-07T00:29:59.621Z,86.16
2022-08-07T00:30:34.751Z,86.27
2022-08-07T00:31:12.428Z,86.68
2022-08-07T00:31:45.176Z,86.16
2022-08-07T00:32:28.381Z,87.18
2022-08-07T00:32:55.634Z,86.47
2022-08-07T00:33:32.856Z,87.38
2022-08-07T00:34:08.962Z,87.48
2022-08-07T00:34:41.302Z,86.27
2022-08-07T00:35:16.655Z,85.76
2022-08-07T00:35:51.641Z,85.96
2022-08-07T00:36:26.951Z,86.27
2022-08-07T00:37:02.247Z,86.16
2022-08-07T00:37:47.715Z,86.77
2022-08-07T00:38:13.114Z,85.60
2022-08-07T00:38:47.797Z,85.39
2022-08-07T00:39:23.037Z,86.00
2022-08-07T00:39:58.381Z,86.88
2022-08-07T00:40:39.171Z,87.38
2022-08-07T00:41:09.806Z,87.69
2022-08-07T00:41:45.383Z,87.12
2022-08-07T00:42:19.372Z,86.31
2022-08-07T00:42:54.570Z,87.32
2022-08-07T00:44:00.253Z,86.21
2022-08-07T00:44:04.996Z,85.90
2022-08-07T00:44:41.546Z,86.51
2022-08-07T00:45:16.314Z,86.21
2022-08-07T00:45:51.571Z,86.00
2022-08-07T00:46:26.891Z,86.51
2022-08-07T00:47:02.216Z,86.51
2022-08-07T00:48:09.181Z,86.31
2022-08-07T00:48:13.064Z,86.41
2022-08-07T00:48:49.926Z,85.90
2022-08-07T00:49:24.976Z,86.31
2022-08-07T00:50:20.351Z,87.37
2022-08-07T00:50:50.441Z,87.02
2022-08-07T00:51:09.707Z,87.73
2022-08-07T00:51:58.255Z,87.63
2022-08-07T00:52:20.277Z,87.32
2022-08-07T00:52:54.961Z,86.71
2022-08-07T00:53:39.416Z,86.82
2022-08-07T00:54:05.391Z,87.93
2022-08-07T00:54:40.875Z,86.82
2022-08-07T00:55:17.305Z,86.51
2022-08-07T00:56:03.404Z,86.45
2022-08-07T00:56:30.312Z,86.86
2022-08-07T00:57:01.274Z,87.87
2022-08-07T00:57:36.905Z,86.76
2022-08-07T00:58:12.021Z,87.57
2022-08-07T00:58:49.781Z,87.37
2022-08-07T00:59:35.213Z,87.16
2022-08-07T00:59:57.970Z,86.45
2022-08-07T01:00:33.541Z,86.55
2022-08-07T01:01:08.710Z,86.76
2022-08-07T01:01:44.704Z,87.46
2022-08-07T01:02:28.279Z,86.05
2022-08-07T01:02:53.956Z,86.76
2022-08-07T01:03:56.150Z,87.37
2022-08-07T01:04:04.576Z,87.87
2022-08-07T01:04:43.255Z,87.87
2022-08-07T01:05:18.830Z,86.76
2022-08-07T01:05:53.572Z,86.55
2022-08-07T01:06:25.861Z,87.37
2022-08-07T01:07:01.181Z,87.37
2022-08-07T01:07:36.276Z,87.16
2022-08-07T01:08:11.582Z,88.28
2022-08-07T01:08:53.067Z,88.18
2022-08-07T01:10:05.060Z,86.86
2022-08-07T01:10:06.667Z,87.97
2022-08-07T01:10:32.447Z,87.97
2022-08-07T01:12:23.838Z,88.68
2022-08-07T01:12:27.805Z,88.58
2022-08-07T01:12:28.512Z,87.71
2022-08-07T01:12:54.540Z,87.00
2022-08-07T01:13:28.832Z,88.82
2022-08-07T01:14:04.066Z,89.13
2022-08-07T01:14:39.270Z,87.77
2022-08-07T01:15:17.654Z,88.82
2022-08-07T01:16:05.712Z,88.18
2022-08-07T01:16:30.392Z,87.81
2022-08-07T01:17:00.451Z,88.78
2022-08-07T01:17:35.476Z,87.26
2022-08-07T01:18:10.889Z,87.06
2022-08-07T01:18:46.610Z,89.50
2022-08-07T01:19:21.894Z,87.46
2022-08-07T01:19:57.236Z,88.93
2022-08-07T01:20:32.246Z,89.23
2022-08-07T01:21:07.617Z,87.81
2022-08-07T01:21:43.051Z,89.19
2022-08-07T01:22:22.720Z,87.71
2022-08-07T01:23:00.633Z,88.62
2022-08-07T01:23:38.065Z,88.52
2022-08-07T01:24:04.548Z,88.01
2022-08-07T01:24:41.253Z,88.01
2022-08-07T01:25:53.645Z,88.21
2022-08-07T01:25:55.692Z,87.10
2022-08-07T01:26:26.782Z,88.73
2022-08-07T01:27:01.812Z,88.12
2022-08-07T01:27:37.545Z,87.61
2022-08-07T01:28:12.618Z,88.52
2022-08-07T01:28:48.502Z,88.82
2022-08-07T01:29:23.189Z,89.43
2022-08-07T01:29:58.669Z,88.32
2022-08-07T01:30:34.040Z,88.12
2022-08-07T01:31:09.426Z,87.51
2022-08-07T01:31:48.201Z,86.80
2022-08-07T01:32:19.894Z,87.61
2022-08-07T01:32:55.005Z,89.33
2022-08-07T01:33:55.858Z,89.54
2022-08-07T01:34:05.828Z,89.23
2022-08-07T01:34:41.216Z,88.73
2022-08-07T01:35:17.248Z,87.20
2022-08-07T01:35:54.434Z,86.49
2022-08-07T01:36:33.892Z,87.61
2022-08-07T01:37:02.382Z,86.90
2022-08-07T01:37:37.690Z,87.92
2022-08-07T01:38:13.090Z,87.30
2022-08-07T01:38:48.397Z,87.00
2022-08-07T01:39:23.739Z,87.00
2022-08-07T01:39:59.044Z,87.61
2022-08-07T01:40:34.031Z,88.12
2022-08-07T01:41:09.155Z,85.58
2022-08-07T01:42:06.134Z,86.08
2022-08-07T01:42:38.057Z,87.51
2022-08-07T01:42:58.598Z,88.01
2022-08-07T01:43:34.723Z,87.40
2022-08-07T01:44:06.035Z,87.61
2022-08-07T01:44:41.390Z,85.88
2022-08-07T01:45:18.250Z,86.39
2022-08-07T01:45:54.564Z,87.40
2022-08-07T01:46:27.413Z,88.01
2022-08-07T01:48:16.399Z,87.00
2022-08-07T01:48:18.996Z,86.69
2022-08-07T01:48:19.666Z,86.96
2022-08-07T01:48:48.324Z,87.00
2022-08-07T01:49:23.340Z,87.92
2022-08-07T01:49:58.741Z,86.49
2022-08-07T01:50:33.971Z,87.30
2022-08-07T01:52:02.655Z,87.92
2022-08-07T01:52:03.631Z,89.50
2022-08-07T01:52:19.581Z,88.21
2022-08-07T01:52:55.074Z,88.73
2022-08-07T01:54:11.818Z,86.80
2022-08-07T01:54:12.008Z,86.69
2022-08-07T01:54:40.751Z,86.80
2022-08-07T01:55:22.392Z,86.80
2022-08-07T01:55:51.881Z,86.80
2022-08-07T01:56:28.843Z,88.42
2022-08-07T01:57:02.006Z,88.12
2022-08-07T01:58:06.196Z,86.08
2022-08-07T01:58:29.343Z,84.66
2022-08-07T01:58:47.705Z,84.36
2022-08-07T01:59:22.803Z,84.66
2022-08-07T01:59:58.227Z,83.14
2022-08-07T02:00:33.408Z,82.53
2022-08-07T02:01:09.682Z,82.84
2022-08-07T02:02:01.588Z,83.85
2022-08-07T02:03:11.390Z,84.05
2022-08-07T02:03:11.626Z,86.29
2022-08-07T02:03:42.766Z,85.98
2022-08-07T02:04:05.103Z,86.08
2022-08-07T02:04:55.830Z,88.01
2022-08-07T02:05:43.470Z,87.30
2022-08-07T02:05:59.641Z,87.71
2022-08-07T02:06:31.162Z,88.01
2022-08-07T02:07:01.092Z,87.92
2022-08-07T02:07:50.048Z,87.71
2022-08-07T02:08:13.970Z,88.26
2022-08-07T02:08:47.153Z,86.90
2022-08-07T02:09:52.402Z,87.00
2022-08-07T02:09:58.516Z,87.92
2022-08-07T02:10:32.596Z,87.71
2022-08-07T02:11:07.804Z,87.71
2022-08-07T02:12:02.995Z,87.71
2022-08-07T02:12:18.234Z,89.33
2022-08-07T02:12:53.445Z,87.92
2022-08-07T02:13:58.311Z,87.81
2022-08-07T02:14:03.967Z,87.30
2022-08-07T02:14:40.891Z,88.62
2022-08-07T02:15:14.461Z,88.32
2022-08-07T02:15:49.739Z,88.62
2022-08-07T02:16:32.992Z,88.32
2022-08-07T02:17:00.071Z,87.81
2022-08-07T02:17:35.471Z,88.32
2022-08-07T02:18:10.682Z,88.36
2022-08-07T02:18:47.209Z,87.34
2022-08-07T02:20:07.219Z,88.21
2022-08-07T02:20:07.455Z,87.51
2022-08-07T02:20:31.826Z,88.26
2022-08-07T02:21:06.929Z,88.36
2022-08-07T02:21:56.418Z,87.55
2022-08-07T02:22:18.415Z,89.23
2022-08-07T02:22:54.852Z,89.28
2022-08-07T02:23:28.310Z,89.07
2022-08-07T02:24:03.472Z,88.36
2022-08-07T02:24:39.026Z,88.46
2022-08-07T02:25:18.072Z,88.56
2022-08-07T02:26:31.473Z,88.46
2022-08-07T02:26:32.989Z,88.76
2022-08-07T02:27:01.181Z,88.36
2022-08-07T02:27:35.529Z,88.26
2022-08-07T02:28:11.374Z,88.46
2022-08-07T02:28:45.738Z,88.76
2022-08-07T02:29:21.885Z,87.34
2022-08-07T02:29:56.347Z,88.06
2022-08-07T02:30:32.000Z,88.30
2022-08-07T02:31:10.261Z,87.29
2022-08-07T02:31:42.558Z,88.60
2022-08-07T02:32:17.953Z,87.95
2022-08-07T02:33:00.954Z,88.30
2022-08-07T02:33:33.000Z,89.68
2022-08-07T02:34:11.407Z,88.36
2022-08-07T02:34:39.079Z,88.87
2022-08-07T02:35:14.410Z,87.85
2022-08-07T02:36:30.032Z,88.76
2022-08-07T02:36:30.916Z,89.68
2022-08-07T02:37:00.507Z,89.07
2022-08-07T02:37:36.081Z,88.87
2022-08-07T02:38:10.805Z,89.78
2022-08-07T02:38:50.789Z,89.88
2022-08-07T02:39:43.067Z,89.42
2022-08-07T02:40:02.512Z,89.48
2022-08-07T02:40:35.347Z,89.07
2022-08-07T02:41:07.963Z,90.33
2022-08-07T02:41:50.665Z,90.53
2022-08-07T02:42:17.235Z,90.59
2022-08-07T02:42:52.732Z,89.22
2022-08-07T02:43:27.929Z,89.72
2022-08-07T02:44:03.431Z,89.58
2022-08-07T02:44:38.942Z,89.92
2022-08-07T02:45:57.536Z,89.68
2022-08-07T02:45:58.876Z,90.03
2022-08-07T02:46:24.892Z,89.72
2022-08-07T02:47:00.837Z,89.11
2022-08-07T02:47:45.450Z,89.72
2022-08-07T02:48:10.624Z,90.23
2022-08-07T02:48:47.270Z,89.42
2022-08-07T02:49:56.183Z,89.42
2022-08-07T02:49:59.980Z,89.52
2022-08-07T02:50:31.578Z,89.72
2022-08-07T02:51:06.898Z,88.50
2022-08-07T02:51:49.829Z,89.52
2022-08-07T02:52:17.731Z,89.42
2022-08-07T02:52:52.952Z,89.92
2022-08-07T02:53:28.247Z,90.03
2022-08-07T02:54:03.371Z,89.83
2022-08-07T02:54:38.574Z,89.72
2022-08-07T02:55:27.825Z,89.83
2022-08-07T02:56:03.389Z,89.83
2022-08-07T02:56:24.420Z,89.31
2022-08-07T02:56:59.620Z,89.31
2022-08-07T02:57:35.324Z,89.11
2022-08-07T02:58:10.029Z,89.92
2022-08-07T02:58:47.429Z,89.83
2022-08-07T02:59:24.130Z,89.83
2022-08-07T03:00:01.354Z,90.13
2022-08-07T03:00:30.938Z,89.01
2022-08-07T03:01:06.159Z,89.66
2022-08-07T03:01:41.702Z,89.72
2022-08-07T03:02:17.140Z,88.95
2022-08-07T03:02:54.808Z,89.72
2022-08-07T03:03:29.486Z,89.66
2022-08-07T03:04:03.502Z,89.76
2022-08-07T03:04:37.901Z,89.36
2022-08-07T03:05:12.903Z,88.54
2022-08-07T03:05:48.115Z,89.36
2022-08-07T03:06:26.201Z,89.66
2022-08-07T03:06:58.549Z,89.97
2022-08-07T03:08:04.818Z,88.65
2022-08-07T03:08:10.231Z,89.76
2022-08-07T03:08:44.381Z,89.46
2022-08-07T03:09:44.737Z,89.05
2022-08-07T03:09:55.193Z,89.76
2022-08-07T03:10:31.430Z,89.46
2022-08-07T03:11:06.752Z,90.17
2022-08-07T03:11:52.596Z,89.97
2022-08-07T03:12:22.357Z,90.88
2022-08-07T03:12:52.477Z,90.17
2022-08-07T03:13:27.850Z,90.17
2022-08-07T03:14:02.862Z,90.37
2022-08-07T03:14:37.959Z,90.07
2022-08-07T03:15:13.089Z,90.48
2022-08-07T03:15:56.431Z,89.97
2022-08-07T03:16:27.854Z,89.87
2022-08-07T03:16:58.627Z,90.68
2022-08-07T03:17:34.194Z,89.87
2022-08-07T03:18:09.569Z,89.46
2022-08-07T03:18:44.693Z,90.37
2022-08-07T03:19:20.015Z,90.58
2022-08-07T03:19:55.471Z,90.88
2022-08-07T03:20:30.134Z,90.48
2022-08-07T03:21:08.676Z,90.78
2022-08-07T03:21:40.535Z,90.58
2022-08-07T03:22:18.751Z,90.88
2022-08-07T03:22:51.173Z,90.58
2022-08-07T03:23:34.066Z,90.78
2022-08-07T03:24:18.943Z,92.61
2022-08-07T03:24:37.305Z,91.19
2022-08-07T03:25:12.379Z,92.41
2022-08-07T03:25:47.602Z,91.29
2022-08-07T03:26:23.537Z,90.78
2022-08-07T03:26:59.070Z,90.88
2022-08-07T03:27:42.143Z,90.78
2022-08-07T03:28:36.740Z,91.19
2022-08-07T03:28:43.866Z,90.99
2022-08-07T03:29:18.736Z,90.78
2022-08-07T03:29:54.136Z,90.22
2022-08-07T03:30:29.462Z,90.27
2022-08-07T03:31:04.414Z,90.92
2022-08-07T03:31:42.495Z,89.91
2022-08-07T03:32:15.012Z,89.50
2022-08-07T03:32:58.271Z,89.50
2022-08-07T03:33:25.558Z,89.91
2022-08-07T03:34:00.584Z,92.04
2022-08-07T03:34:39.372Z,90.22
2022-08-07T03:35:18.042Z,90.11
2022-08-07T03:35:50.682Z,90.22
2022-08-07T03:36:21.946Z,90.22
2022-08-07T03:36:57.301Z,90.31
2022-08-07T03:37:32.810Z,90.83
2022-08-07T03:38:07.477Z,90.92
2022-08-07T03:38:42.696Z,90.72
2022-08-07T03:39:17.679Z,91.13
2022-08-07T03:40:07.360Z,91.19
2022-08-07T03:40:31.014Z,90.22
2022-08-07T03:41:03.485Z,90.22
2022-08-07T03:41:42.240Z,89.50
2022-08-07T03:42:13.601Z,90.83
2022-08-07T03:42:49.317Z,92.45
2022-08-07T03:43:26.477Z,91.84
2022-08-07T03:43:59.040Z,90.92
2022-08-07T03:44:34.737Z,90.31
2022-08-07T03:45:09.415Z,90.11
2022-08-07T03:45:48.485Z,90.92
2022-08-07T03:46:20.209Z,91.33
2022-08-07T03:47:10.937Z,92.14
2022-08-07T03:47:47.931Z,92.76
2022-08-07T03:48:10.046Z,90.72
2022-08-07T03:48:45.429Z,92.25
2022-08-07T03:49:16.705Z,91.84
2022-08-07T03:49:52.544Z,91.03
2022-08-07T03:50:28.690Z,90.11
2022-08-07T03:51:01.688Z,90.52
2022-08-07T03:51:46.946Z,91.13
2022-08-07T03:52:22.673Z,90.22
2022-08-07T03:52:47.573Z,90.31
2022-08-07T03:54:01.654Z,90.52
2022-08-07T03:54:33.743Z,90.92
2022-08-07T03:54:54.568Z,89.91
2022-08-07T03:55:08.742Z,89.70
2022-08-07T03:55:53.076Z,90.56
2022-08-07T03:56:18.949Z,90.42
2022-08-07T03:57:03.768Z,90.92
2022-08-07T03:58:33.614Z,90.92
2022-08-07T03:59:06.836Z,90.46
2022-08-07T03:59:08.746Z,89.85
2022-08-07T03:59:15.678Z,91.38
2022-08-07T04:00:01.783Z,91.07
2022-08-07T04:00:29.116Z,89.85
2022-08-07T04:01:00.761Z,90.46
2022-08-07T04:01:36.920Z,90.66
2022-08-07T04:02:10.787Z,90.66
2022-08-07T04:02:47.328Z,91.17
2022-08-07T04:03:21.206Z,90.46
2022-08-07T04:03:56.329Z,91.48
2022-08-07T04:04:32.831Z,90.56
2022-08-07T04:05:06.653Z,91.07
2022-08-07T04:05:45.594Z,90.16
2022-08-07T04:06:37.594Z,91.58
2022-08-07T04:06:52.861Z,92.49
2022-08-07T04:07:35.849Z,92.40
2022-08-07T04:08:03.266Z,90.25
2022-08-07T04:08:38.497Z,90.97
2022-08-07T04:09:15.269Z,89.95
2022-08-07T04:09:50.542Z,90.16
2022-08-07T04:10:24.364Z,90.97
2022-08-07T04:12:23.693Z,91.27
2022-08-07T04:12:24.512Z,91.78
2022-08-07T04:12:27.252Z,92.60
2022-08-07T04:12:45.009Z,92.60
2022-08-07T04:13:20.413Z,92.70
2022-08-07T04:14:09.327Z,91.48
2022-08-07T04:14:38.761Z,91.38
2022-08-07T04:15:06.249Z,91.88
2022-08-07T04:15:41.299Z,91.23
2022-08-07T04:16:30.069Z,90.86
2022-08-07T04:16:58.192Z,91.38
2022-08-07T04:18:30.784Z,92.40
2022-08-07T04:18:31.313Z,91.17
2022-08-07T04:18:59.555Z,92.55
2022-08-07T04:19:15.087Z,91.07
2022-08-07T04:19:50.881Z,90.46
2022-08-07T04:20:23.591Z,91.17
2022-08-07T04:20:59.062Z,90.86
2022-08-07T04:21:33.942Z,90.56
2022-08-07T04:22:15.776Z,92.19
2022-08-07T04:22:53.600Z,91.48
2022-08-07T04:23:19.997Z,91.88
2022-08-07T04:24:03.748Z,90.46
2022-08-07T04:24:38.844Z,89.44
2022-08-07T04:25:08.921Z,89.75
2022-08-07T04:25:41.156Z,90.66
2022-08-07T04:26:16.849Z,90.25
2022-08-07T04:26:51.449Z,89.03
2022-08-07T04:27:26.896Z,89.34
2022-08-07T04:28:01.960Z,89.99
2022-08-07T04:28:37.095Z,89.79
2022-08-07T04:29:12.297Z,88.63
2022-08-07T04:29:58.830Z,90.25
2022-08-07T04:30:43.799Z,90.97
2022-08-07T04:30:58.855Z,90.36
2022-08-07T04:31:38.841Z,90.77
2022-08-07T04:32:10.057Z,90.40
2022-08-07T04:32:44.761Z,90.25
2022-08-07T04:33:19.600Z,89.95
2022-08-07T04:33:54.965Z,88.83
2022-08-07T04:34:32.996Z,88.53
2022-08-07T04:35:06.031Z,88.22
2022-08-07T04:35:40.445Z,90.05
2022-08-07T04:36:15.928Z,90.66
2022-08-07T04:36:51.348Z,90.66
2022-08-07T04:37:26.860Z,91.17
2022-08-07T04:38:06.370Z,91.07
2022-08-07T04:38:37.299Z,91.99
2022-08-07T04:39:12.768Z,90.97
2022-08-07T04:39:48.083Z,90.86
2022-08-07T04:40:22.929Z,90.77
2022-08-07T04:40:58.419Z,90.22
2022-08-07T04:41:36.805Z,90.46
2022-08-07T04:42:08.791Z,90.66
2022-08-07T04:42:44.382Z,91.27
2022-08-07T04:43:19.599Z,92.49
2022-08-07T04:44:11.890Z,92.76
2022-08-07T04:44:30.111Z,92.40
2022-08-07T04:45:07.843Z,92.29
2022-08-07T04:45:57.295Z,90.86
2022-08-07T04:46:25.759Z,92.09
2022-08-07T04:47:04.195Z,91.53
2022-08-07T04:47:57.242Z,90.62
2022-08-07T04:48:10.372Z,91.38
2022-08-07T04:48:36.643Z,90.83
2022-08-07T04:49:17.750Z,89.91
2022-08-07T04:49:57.543Z,91.07
2022-08-07T04:50:22.461Z,90.31
2022-08-07T04:50:57.890Z,90.52
2022-08-07T04:51:33.117Z,90.92
2022-08-07T04:52:08.409Z,91.33
2022-08-07T04:52:51.237Z,90.56
2022-08-07T04:53:40.193Z,90.16
2022-08-07T04:54:05.406Z,89.54
2022-08-07T04:54:30.165Z,90.46
2022-08-07T04:55:15.602Z,90.97
2022-08-07T04:58:11.156Z,90.66
2022-08-07T04:58:14.296Z,90.86
2022-08-07T04:58:14.297Z,90.52
2022-08-07T04:58:14.765Z,92.60
2022-08-07T04:58:32.155Z,91.03
2022-08-07T04:59:07.696Z,91.53
2022-08-07T05:00:08.920Z,91.23
2022-08-07T05:00:09.539Z,91.03
2022-08-07T05:00:30.595Z,91.53
2022-08-07T05:00:57.597Z,90.92
2022-08-07T05:01:32.960Z,90.92
2022-08-07T05:02:08.243Z,90.62
2022-08-07T05:02:43.561Z,91.23
2022-08-07T05:03:38.852Z,91.33
2022-08-07T05:04:06.516Z,90.83
2022-08-07T05:04:28.673Z,90.83
2022-08-07T05:05:11.920Z,90.83
2022-08-07T05:05:52.887Z,90.01
2022-08-07T05:06:16.442Z,89.70
2022-08-07T05:06:51.616Z,89.64
2022-08-07T05:07:36.505Z,89.50
2022-08-07T05:08:00.134Z,89.40
2022-08-07T05:08:59.073Z,89.44
2022-08-07T05:09:10.401Z,90.31
2022-08-07T05:09:46.989Z,89.20
2022-08-07T05:10:20.710Z,89.70
2022-08-07T05:10:58.361Z,90.22
2022-08-07T05:11:57.145Z,90.22
2022-08-07T05:12:07.904Z,89.91
2022-08-07T05:12:46.177Z,90.01
2022-08-07T05:14:51.994Z,90.83
2022-08-07T05:14:53.517Z,90.92
2022-08-07T05:14:53.679Z,90.22
2022-08-07T05:15:05.190Z,90.62
2022-08-07T05:15:39.994Z,91.13
2022-08-07T05:16:15.404Z,90.92
2022-08-07T05:16:57.553Z,90.92
2022-08-07T05:17:52.345Z,90.92
2022-08-07T05:18:10.389Z,90.92
2022-08-07T05:18:43.758Z,91.43
2022-08-07T05:19:18.866Z,90.72
2022-08-07T05:19:54.071Z,91.03
2022-08-07T05:20:29.463Z,90.31
2022-08-07T05:21:04.629Z,90.88
2022-08-07T05:21:59.864Z,91.03
2022-08-07T05:22:26.738Z,90.58
2022-08-07T05:22:50.688Z,90.62
2022-08-07T05:23:29.807Z,91.03
2022-08-07T05:24:01.205Z,90.58
2022-08-07T05:24:39.505Z,90.31
2022-08-07T05:25:11.673Z,89.87
2022-08-07T05:26:13.148Z,89.87
2022-08-07T05:26:23.938Z,90.37
2022-08-07T05:26:57.144Z,89.97
2022-08-07T05:28:03.224Z,89.87
2022-08-07T05:28:20.086Z,89.76
2022-08-07T05:28:48.597Z,89.97
2022-08-07T05:29:17.493Z,89.36
2022-08-07T05:29:53.635Z,87.73
2022-08-07T05:30:32.630Z,88.65
2022-08-07T05:31:03.691Z,89.97
2022-08-07T05:31:38.687Z,89.46
2022-08-07T05:32:14.066Z,89.36
2022-08-07T05:32:49.459Z,89.97
2022-08-07T05:33:24.665Z,89.46
2022-08-07T05:34:04.462Z,90.07
2022-08-07T05:34:35.322Z,89.92
2022-08-07T05:35:10.414Z,89.87
2022-08-07T05:35:45.888Z,89.05
2022-08-07T05:36:22.422Z,89.05
2022-08-07T05:36:56.305Z,89.22
2022-08-07T05:37:31.574Z,89.97
2022-08-07T05:38:08.987Z,89.83
2022-08-07T05:39:00.419Z,89.83
2022-08-07T05:40:05.078Z,89.92
2022-08-07T05:40:07.040Z,89.92
2022-08-07T05:40:28.662Z,89.72
2022-08-07T05:41:12.138Z,89.42
2022-08-07T05:42:00.594Z,89.72
2022-08-07T05:42:13.630Z,90.19
2022-08-07T05:42:55.545Z,89.92
2022-08-07T05:43:49.668Z,89.83
2022-08-07T05:44:12.376Z,89.01
2022-08-07T05:44:34.799Z,89.17
2022-08-07T05:45:14.546Z,88.97
2022-08-07T05:45:47.618Z,88.16
2022-08-07T05:46:20.537Z,89.58
2022-08-07T05:46:55.538Z,88.16
2022-08-07T05:47:38.706Z,88.26
2022-08-07T05:48:06.624Z,89.17
2022-08-07T05:48:58.228Z,89.07
2022-08-07T05:49:16.467Z,88.73
2022-08-07T05:49:51.680Z,89.17
2022-08-07T05:50:26.866Z,88.62
2022-08-07T05:51:01.965Z,88.52
2022-08-07T05:51:40.100Z,89.33
2022-08-07T05:52:12.927Z,89.43
2022-08-07T05:52:48.018Z,88.93
2022-08-07T05:54:12.053Z,87.00
2022-08-07T05:54:12.983Z,88.42
2022-08-07T05:54:44.467Z,86.90
2022-08-07T05:55:10.973Z,87.71
2022-08-07T05:56:02.852Z,87.71
2022-08-07T05:56:19.441Z,86.39
2022-08-07T05:56:54.659Z,86.55
2022-08-07T05:57:30.088Z,87.16
2022-08-07T05:58:05.067Z,88.28
2022-08-07T05:58:40.527Z,86.76
2022-08-07T05:59:16.050Z,86.86
2022-08-07T05:59:55.856Z,86.76
2022-08-07T06:00:26.257Z,86.65
2022-08-07T06:01:01.470Z,86.21
2022-08-07T06:01:36.584Z,85.90
2022-08-07T06:02:11.736Z,86.21
2022-08-07T06:02:46.949Z,86.15
2022-08-07T06:03:22.197Z,85.39
2022-08-07T06:04:00.932Z,84.99
2022-08-07T06:04:32.408Z,85.50
2022-08-07T06:05:07.422Z,85.60
2022-08-07T06:05:49.125Z,84.95
2022-08-07T06:06:19.003Z,85.46
2022-08-07T06:06:56.479Z,86.07
2022-08-07T06:08:13.681Z,86.47
2022-08-07T06:08:13.790Z,86.27
2022-08-07T06:08:42.439Z,86.37
2022-08-07T06:09:14.320Z,85.96
2022-08-07T06:10:05.503Z,85.76
2022-08-07T06:10:24.824Z,85.11
2022-08-07T06:10:59.899Z,85.62
2022-08-07T06:11:35.013Z,86.13
2022-08-07T06:12:10.504Z,86.02
2022-08-07T06:12:46.142Z,85.82
2022-08-07T06:14:11.822Z,84.30
2022-08-07T06:14:12.400Z,85.42
2022-08-07T06:14:31.757Z,84.97
2022-08-07T06:15:06.759Z,85.31
2022-08-07T06:15:42.860Z,85.38
2022-08-07T06:16:17.547Z,85.48
2022-08-07T06:16:56.285Z,85.68
2022-08-07T06:17:30.504Z,85.99
2022-08-07T06:18:03.368Z,84.56
2022-08-07T06:18:38.575Z,84.73
2022-08-07T06:19:17.948Z,84.83
2022-08-07T06:20:03.322Z,84.63
2022-08-07T06:20:25.619Z,84.93
2022-08-07T06:22:14.391Z,84.12
2022-08-07T06:22:15.158Z,83.92
2022-08-07T06:22:15.903Z,84.83
2022-08-07T06:23:01.769Z,85.33
2022-08-07T06:23:45.866Z,84.19
2022-08-07T06:24:37.937Z,83.78
2022-08-07T06:24:38.341Z,83.72
2022-08-07T06:25:10.185Z,83.68
2022-08-07T06:25:54.398Z,83.82
2022-08-07T06:26:17.923Z,84.73
2022-08-07T06:26:53.347Z,83.17
2022-08-07T06:28:00.372Z,80.74
2022-08-07T06:28:03.418Z,79.22
2022-08-07T06:28:39.015Z,79.43
2022-08-07T06:29:14.424Z,78.72
2022-08-07T06:29:49.857Z,77.77
2022-08-07T06:30:35.471Z,78.58
2022-08-07T06:31:00.737Z,80.60
2022-08-07T06:31:47.030Z,79.46
2022-08-07T06:32:13.350Z,79.75
2022-08-07T06:32:46.768Z,79.66
2022-08-07T06:33:22.736Z,77.19
2022-08-07T06:33:56.962Z,77.03
2022-08-07T06:34:32.077Z,77.60
2022-08-07T06:35:17.831Z,78.75
2022-08-07T06:35:47.497Z,78.30
2022-08-07T06:36:35.048Z,77.09
2022-08-07T06:36:53.298Z,78.50
2022-08-07T06:37:44.083Z,79.01
2022-08-07T06:38:03.595Z,78.20
2022-08-07T06:38:39.004Z,78.27
2022-08-07T06:40:16.868Z,78.77
2022-08-07T06:40:17.638Z,78.27
2022-08-07T06:40:24.354Z,78.77
2022-08-07T06:40:59.563Z,78.23
2022-08-07T06:42:02.540Z,78.03
2022-08-07T06:42:09.907Z,78.74
2022-08-07T06:42:46.547Z,78.33
2022-08-07T06:43:21.460Z,78.03
2022-08-07T06:43:59.541Z,78.94
2022-08-07T06:44:33.931Z,77.53
2022-08-07T06:45:05.492Z,77.83
2022-08-07T06:45:40.701Z,77.62
2022-08-07T06:46:15.796Z,74.60
2022-08-07T06:46:53.228Z,75.27
2022-08-07T06:47:26.888Z,77.19
2022-08-07T06:48:01.091Z,77.39
2022-08-07T06:48:36.691Z,77.69
2022-08-07T06:49:12.102Z,77.19
2022-08-07T06:49:52.396Z,76.54
2022-08-07T06:50:22.950Z,77.35
2022-08-07T06:50:58.440Z,75.13
2022-08-07T06:51:33.823Z,74.52
2022-08-07T06:52:10.337Z,74.93
2022-08-07T06:52:45.070Z,76.10
2022-08-07T06:54:12.084Z,75.90
2022-08-07T06:55:28.914Z,75.90
2022-08-07T06:55:31.287Z,75.90
2022-08-07T06:55:32.757Z,75.40
2022-08-07T06:55:53.691Z,75.16
2022-08-07T06:56:15.985Z,72.14
2022-08-07T06:56:50.861Z,74.29
2022-08-07T06:57:39.345Z,74.15
2022-08-07T06:58:02.154Z,75.06
2022-08-07T06:58:37.449Z,74.66
2022-08-07T07:00:14.349Z,72.85
2022-08-07T07:00:15.097Z,72.74
2022-08-07T07:00:23.275Z,73.55
2022-08-07T07:00:58.675Z,72.14
2022-08-07T07:01:43.726Z,74.22
2022-08-07T07:02:09.181Z,74.02
2022-08-07T07:02:48.422Z,73.92
2022-08-07T07:03:26.341Z,72.88
2022-08-07T07:03:55.589Z,73.38
2022-08-07T07:04:32.588Z,71.87
2022-08-07T07:05:05.014Z,70.86
2022-08-07T07:06:05.587Z,70.53
2022-08-07T07:06:26.113Z,72.37
2022-08-07T07:07:00.385Z,70.26
2022-08-07T07:07:59.314Z,73.78
2022-08-07T07:08:06.716Z,72.54
2022-08-07T07:08:39.743Z,73.04
2022-08-07T07:09:11.870Z,72.84
2022-08-07T07:09:47.578Z,72.94
2022-08-07T07:10:26.587Z,72.24
2022-08-07T07:10:58.953Z,71.63
2022-08-07T07:12:07.403Z,68.38
2022-08-07T07:12:15.667Z,68.38
2022-08-07T07:12:48.847Z,68.59
2022-08-07T07:13:56.103Z,68.59
2022-08-07T07:13:58.312Z,70.06
2022-08-07T07:14:29.497Z,71.90
2022-08-07T07:15:04.812Z,72.37
2022-08-07T07:15:39.858Z,70.93
2022-08-07T07:16:14.771Z,70.23
2022-08-07T07:16:50.990Z,71.13
2022-08-07T07:17:38.982Z,72.24
2022-08-07T07:18:01.117Z,70.09
2022-08-07T07:18:47.943Z,68.08
2022-08-07T07:19:55.122Z,66.64
2022-08-07T07:19:55.578Z,66.44
2022-08-07T07:20:22.616Z,66.61
2022-08-07T07:20:57.838Z,65.51
2022-08-07T07:21:40.357Z,63.28
2022-08-07T07:22:12.143Z,65.38
2022-08-07T07:24:09.419Z,64.34
2022-08-07T07:24:09.776Z,66.32
2022-08-07T07:24:09.834Z,65.95
2022-08-07T07:24:29.707Z,68.62
2022-08-07T07:26:33.097Z,67.82
2022-08-07T07:26:33.482Z,63.01
2022-08-07T07:26:35.721Z,62.92
2022-08-07T07:26:52.318Z,66.42
2022-08-07T07:27:26.002Z,66.62
2022-08-07T07:28:02.781Z,67.22
2022-08-07T07:28:48.295Z,66.52
2022-08-07T07:29:38.896Z,61.08
2022-08-07T07:30:09.056Z,63.61
2022-08-07T07:30:32.419Z,62.61
2022-08-07T07:30:57.268Z,62.68
2022-08-07T07:31:39.992Z,63.28
2022-08-07T07:32:07.725Z,63.68
2022-08-07T07:32:43.122Z,65.69
2022-08-07T07:33:18.424Z,65.48
2022-08-07T07:33:56.830Z,66.78